sensor_id;sensor_type;location;lat;lon;timestamp;P1;durP1;ratioP1;P2;durP2;ratioP2
68803;SDS011;55787;52.678;13.314;2023-06-14T00:05:55;6.40;;;1.92;;
68803;SDS011;55787;52.678;13.314;2023-06-14T00:08:22;7.40;;;2.00;;
68803;SDS011;55787;52.678;13.314;2023-06-14T00:10:51;6.63;;;2.10;;
68803;SDS011;55787;52.678;13.314;2023-06-14T00:13:17;6.25;;;1.70;;
68803;SDS011;55787;52.678;13.314;2023-06-14T00:15:45;6.13;;;1.90;;
68803;SDS011;55787;52.678;13.314;2023-06-14T00:18:12;7.22;;;1.88;;
68803;SDS011;55787;52.678;13.314;2023-06-14T00:20:39;6.10;;;2.00;;
68803;SDS011;55787;52.678;13.314;2023-06-14T00:23:09;8.48;;;2.13;;
68803;SDS011;55787;52.678;13.314;2023-06-14T00:25:35;7.88;;;1.98;;
68803;SDS011;55787;52.678;13.314;2023-06-14T00:28:02;6.80;;;2.13;;
68803;SDS011;55787;52.678;13.314;2023-06-14T00:30:29;7.97;;;2.92;;
68803;SDS011;55787;52.678;13.314;2023-06-14T00:32:57;6.93;;;2.10;;
68803;SDS011;55787;52.678;13.314;2023-06-14T00:35:24;7.85;;;2.13;;
68803;SDS011;55787;52.678;13.314;2023-06-14T00:37:51;7.15;;;2.30;;
68803;SDS011;55787;52.678;13.314;2023-06-14T00:40:18;7.65;;;2.30;;
68803;SDS011;55787;52.678;13.314;2023-06-14T00:42:45;8.43;;;2.55;;
68803;SDS011;55787;52.678;13.314;2023-06-14T00:45:11;7.40;;;2.37;;
68803;SDS011;55787;52.678;13.314;2023-06-14T00:47:38;7.88;;;2.10;;
68803;SDS011;55787;52.678;13.314;2023-06-14T00:50:08;6.55;;;2.00;;
68803;SDS011;55787;52.678;13.314;2023-06-14T00:52:35;7.03;;;2.22;;
68803;SDS011;55787;52.678;13.314;2023-06-14T00:55:02;6.60;;;2.28;;
68803;SDS011;55787;52.678;13.314;2023-06-14T00:57:29;7.00;;;2.10;;
68803;SDS011;55787;52.678;13.314;2023-06-14T00:59:56;7.18;;;2.40;;
68803;SDS011;55787;52.678;13.314;2023-06-14T01:02:22;7.55;;;2.47;;
68803;SDS011;55787;52.678;13.314;2023-06-14T01:04:50;9.07;;;2.40;;
68803;SDS011;55787;52.678;13.314;2023-06-14T01:13:24;6.82;;;2.42;;
68803;SDS011;55787;52.678;13.314;2023-06-14T01:15:58;8.43;;;2.53;;
68803;SDS011;55787;52.678;13.314;2023-06-14T01:18:25;7.80;;;2.42;;
68803;SDS011;55787;52.678;13.314;2023-06-14T01:20:54;7.65;;;2.40;;
68803;SDS011;55787;52.678;13.314;2023-06-14T01:23:22;11.73;;;2.47;;
68803;SDS011;55787;52.678;13.314;2023-06-14T01:25:49;7.28;;;2.22;;
68803;SDS011;55787;52.678;13.314;2023-06-14T01:28:20;9.27;;;2.60;;
68803;SDS011;55787;52.678;13.314;2023-06-14T01:30:52;9.00;;;2.53;;
68803;SDS011;55787;52.678;13.314;2023-06-14T01:33:21;9.25;;;2.67;;
68803;SDS011;55787;52.678;13.314;2023-06-14T01:35:50;8.43;;;2.67;;
68803;SDS011;55787;52.678;13.314;2023-06-14T01:38:19;8.52;;;2.50;;
68803;SDS011;55787;52.678;13.314;2023-06-14T01:40:50;8.32;;;2.50;;
68803;SDS011;55787;52.678;13.314;2023-06-14T01:43:19;7.68;;;2.58;;
68803;SDS011;55787;52.678;13.314;2023-06-14T01:45:46;7.60;;;2.85;;
68803;SDS011;55787;52.678;13.314;2023-06-14T01:48:15;8.50;;;2.80;;
68803;SDS011;55787;52.678;13.314;2023-06-14T01:50:42;10.68;;;3.08;;
68803;SDS011;55787;52.678;13.314;2023-06-14T01:53:09;7.38;;;2.92;;
68803;SDS011;55787;52.678;13.314;2023-06-14T01:55:36;9.93;;;3.20;;
68803;SDS011;55787;52.678;13.314;2023-06-14T01:58:04;8.27;;;3.25;;
68803;SDS011;55787;52.678;13.314;2023-06-14T02:00:32;10.30;;;3.27;;
68803;SDS011;55787;52.678;13.314;2023-06-14T02:02:58;7.75;;;2.90;;
68803;SDS011;55787;52.678;13.314;2023-06-14T02:05:25;10.77;;;3.25;;
68803;SDS011;55787;52.678;13.314;2023-06-14T02:07:52;7.70;;;3.13;;
68803;SDS011;55787;52.678;13.314;2023-06-14T02:10:20;9.82;;;3.63;;
68803;SDS011;55787;52.678;13.314;2023-06-14T02:12:46;9.40;;;3.20;;
68803;SDS011;55787;52.678;13.314;2023-06-14T02:15:15;9.50;;;3.50;;
68803;SDS011;55787;52.678;13.314;2023-06-14T02:17:46;9.10;;;3.33;;
68803;SDS011;55787;52.678;13.314;2023-06-14T02:20:16;9.68;;;3.40;;
68803;SDS011;55787;52.678;13.314;2023-06-14T02:22:43;12.20;;;4.00;;
68803;SDS011;55787;52.678;13.314;2023-06-14T02:25:11;10.03;;;3.30;;
68803;SDS011;55787;52.678;13.314;2023-06-14T02:27:37;9.85;;;3.50;;
68803;SDS011;55787;52.678;13.314;2023-06-14T02:30:04;10.85;;;3.50;;
68803;SDS011;55787;52.678;13.314;2023-06-14T02:32:32;8.05;;;3.40;;
68803;SDS011;55787;52.678;13.314;2023-06-14T02:35:02;8.82;;;3.80;;
68803;SDS011;55787;52.678;13.314;2023-06-14T02:37:29;10.60;;;3.53;;
68803;SDS011;55787;52.678;13.314;2023-06-14T02:39:56;11.15;;;3.70;;
68803;SDS011;55787;52.678;13.314;2023-06-14T02:42:23;10.65;;;3.60;;
68803;SDS011;55787;52.678;13.314;2023-06-14T02:44:49;8.25;;;3.95;;
68803;SDS011;55787;52.678;13.314;2023-06-14T02:47:18;10.15;;;4.13;;
68803;SDS011;55787;52.678;13.314;2023-06-14T02:49:45;9.77;;;4.03;;
68803;SDS011;55787;52.678;13.314;2023-06-14T02:52:13;9.63;;;4.35;;
68803;SDS011;55787;52.678;13.314;2023-06-14T02:54:40;9.70;;;4.22;;
68803;SDS011;55787;52.678;13.314;2023-06-14T02:57:08;10.02;;;3.97;;
68803;SDS011;55787;52.678;13.314;2023-06-14T02:59:35;10.32;;;3.90;;
68803;SDS011;55787;52.678;13.314;2023-06-14T03:02:01;9.70;;;4.27;;
68803;SDS011;55787;52.678;13.314;2023-06-14T03:04:29;8.73;;;3.92;;
68803;SDS011;55787;52.678;13.314;2023-06-14T03:07:03;9.13;;;4.00;;
68803;SDS011;55787;52.678;13.314;2023-06-14T03:09:36;10.85;;;4.30;;
68803;SDS011;55787;52.678;13.314;2023-06-14T03:12:04;10.48;;;4.40;;
68803;SDS011;55787;52.678;13.314;2023-06-14T03:14:33;11.67;;;4.20;;
68803;SDS011;55787;52.678;13.314;2023-06-14T03:17:01;10.48;;;4.40;;
68803;SDS011;55787;52.678;13.314;2023-06-14T03:19:31;14.05;;;4.28;;
68803;SDS011;55787;52.678;13.314;2023-06-14T03:21:58;10.05;;;4.07;;
68803;SDS011;55787;52.678;13.314;2023-06-14T03:24:25;9.68;;;4.25;;
68803;SDS011;55787;52.678;13.314;2023-06-14T03:26:55;10.90;;;4.10;;
68803;SDS011;55787;52.678;13.314;2023-06-14T03:29:23;11.95;;;4.70;;
68803;SDS011;55787;52.678;13.314;2023-06-14T03:31:57;9.88;;;4.10;;
68803;SDS011;55787;52.678;13.314;2023-06-14T03:34:24;10.30;;;4.00;;
68803;SDS011;55787;52.678;13.314;2023-06-14T03:36:52;10.32;;;4.05;;
68803;SDS011;55787;52.678;13.314;2023-06-14T03:39:19;10.83;;;4.43;;
68803;SDS011;55787;52.678;13.314;2023-06-14T03:41:46;9.50;;;4.30;;
68803;SDS011;55787;52.678;13.314;2023-06-14T03:44:16;10.13;;;4.70;;
68803;SDS011;55787;52.678;13.314;2023-06-14T03:46:44;11.32;;;4.10;;
68803;SDS011;55787;52.678;13.314;2023-06-14T03:49:12;11.38;;;4.22;;
68803;SDS011;55787;52.678;13.314;2023-06-14T03:51:39;10.43;;;4.57;;
68803;SDS011;55787;52.678;13.314;2023-06-14T03:54:07;10.05;;;4.63;;
68803;SDS011;55787;52.678;13.314;2023-06-14T03:56:53;12.95;;;4.93;;
68803;SDS011;55787;52.678;13.314;2023-06-14T03:59:20;12.88;;;4.78;;
68803;SDS011;55787;52.678;13.314;2023-06-14T04:01:47;10.73;;;4.88;;
68803;SDS011;55787;52.678;13.314;2023-06-14T04:04:15;12.27;;;5.10;;
68803;SDS011;55787;52.678;13.314;2023-06-14T04:06:45;11.45;;;4.80;;
68803;SDS011;55787;52.678;13.314;2023-06-14T04:09:14;11.20;;;5.05;;
68803;SDS011;55787;52.678;13.314;2023-06-14T04:11:41;11.68;;;5.05;;
68803;SDS011;55787;52.678;13.314;2023-06-14T04:14:07;12.48;;;5.28;;
68803;SDS011;55787;52.678;13.314;2023-06-14T04:16:34;11.03;;;5.30;;
68803;SDS011;55787;52.678;13.314;2023-06-14T04:19:01;9.60;;;4.70;;
68803;SDS011;55787;52.678;13.314;2023-06-14T04:21:28;12.23;;;5.28;;
68803;SDS011;55787;52.678;13.314;2023-06-14T04:23:55;9.82;;;4.97;;
68803;SDS011;55787;52.678;13.314;2023-06-14T04:26:22;12.65;;;5.57;;
68803;SDS011;55787;52.678;13.314;2023-06-14T04:28:52;12.57;;;5.57;;
68803;SDS011;55787;52.678;13.314;2023-06-14T04:31:23;10.15;;;5.25;;
68803;SDS011;55787;52.678;13.314;2023-06-14T04:33:52;10.98;;;5.05;;
68803;SDS011;55787;52.678;13.314;2023-06-14T04:36:20;11.15;;;5.35;;
68803;SDS011;55787;52.678;13.314;2023-06-14T04:38:46;11.65;;;4.93;;
68803;SDS011;55787;52.678;13.314;2023-06-14T04:41:15;10.10;;;4.90;;
68803;SDS011;55787;52.678;13.314;2023-06-14T04:43:42;12.05;;;4.70;;
68803;SDS011;55787;52.678;13.314;2023-06-14T04:46:09;11.02;;;4.88;;
68803;SDS011;55787;52.678;13.314;2023-06-14T04:48:37;10.73;;;4.68;;
68803;SDS011;55787;52.678;13.314;2023-06-14T04:51:07;12.23;;;4.43;;
68803;SDS011;55787;52.678;13.314;2023-06-14T04:53:35;10.93;;;4.37;;
68803;SDS011;55787;52.678;13.314;2023-06-14T04:56:02;10.73;;;4.90;;
68803;SDS011;55787;52.678;13.314;2023-06-14T04:58:30;10.45;;;4.40;;
68803;SDS011;55787;52.678;13.314;2023-06-14T05:00:57;10.70;;;4.47;;
68803;SDS011;55787;52.678;13.314;2023-06-14T05:03:26;9.32;;;4.38;;
68803;SDS011;55787;52.678;13.314;2023-06-14T05:05:54;9.53;;;4.50;;
68803;SDS011;55787;52.678;13.314;2023-06-14T05:08:21;9.82;;;4.32;;
68803;SDS011;55787;52.678;13.314;2023-06-14T05:10:51;11.48;;;4.50;;
68803;SDS011;55787;52.678;13.314;2023-06-14T05:13:18;10.85;;;4.20;;
68803;SDS011;55787;52.678;13.314;2023-06-14T05:15:45;10.18;;;4.55;;
68803;SDS011;55787;52.678;13.314;2023-06-14T05:18:12;10.90;;;4.83;;
68803;SDS011;55787;52.678;13.314;2023-06-14T05:20:39;10.90;;;4.55;;
68803;SDS011;55787;52.678;13.314;2023-06-14T05:23:08;12.07;;;4.03;;
68803;SDS011;55787;52.678;13.314;2023-06-14T05:25:35;11.55;;;4.60;;
68803;SDS011;55787;52.678;13.314;2023-06-14T05:28:02;10.00;;;3.97;;
68803;SDS011;55787;52.678;13.314;2023-06-14T05:30:29;11.43;;;4.63;;
68803;SDS011;55787;52.678;13.314;2023-06-14T05:32:57;9.95;;;4.35;;
68803;SDS011;55787;52.678;13.314;2023-06-14T05:35:23;9.32;;;4.03;;
68803;SDS011;55787;52.678;13.314;2023-06-14T05:37:53;9.15;;;4.32;;
68803;SDS011;55787;52.678;13.314;2023-06-14T05:40:20;9.43;;;4.55;;
68803;SDS011;55787;52.678;13.314;2023-06-14T05:42:47;9.53;;;4.03;;
68803;SDS011;55787;52.678;13.314;2023-06-14T05:45:13;11.02;;;4.00;;
68803;SDS011;55787;52.678;13.314;2023-06-14T05:47:42;9.82;;;3.90;;
68803;SDS011;55787;52.678;13.314;2023-06-14T05:50:09;9.65;;;3.72;;
68803;SDS011;55787;52.678;13.314;2023-06-14T05:52:36;10.48;;;4.10;;
68803;SDS011;55787;52.678;13.314;2023-06-14T05:55:03;8.93;;;3.90;;
68803;SDS011;55787;52.678;13.314;2023-06-14T05:57:31;10.13;;;3.75;;
68803;SDS011;55787;52.678;13.314;2023-06-14T05:59:58;11.90;;;4.20;;
68803;SDS011;55787;52.678;13.314;2023-06-14T06:02:25;11.07;;;4.25;;
68803;SDS011;55787;52.678;13.314;2023-06-14T06:04:51;10.50;;;3.83;;
68803;SDS011;55787;52.678;13.314;2023-06-14T06:07:18;10.27;;;3.97;;
68803;SDS011;55787;52.678;13.314;2023-06-14T06:09:45;10.93;;;4.10;;
68803;SDS011;55787;52.678;13.314;2023-06-14T06:12:12;10.93;;;3.90;;
68803;SDS011;55787;52.678;13.314;2023-06-14T06:14:39;13.55;;;4.47;;
68803;SDS011;55787;52.678;13.314;2023-06-14T06:17:05;10.77;;;4.18;;
68803;SDS011;55787;52.678;13.314;2023-06-14T06:19:33;10.67;;;4.03;;
68803;SDS011;55787;52.678;13.314;2023-06-14T06:21:59;10.05;;;4.20;;
68803;SDS011;55787;52.678;13.314;2023-06-14T06:24:26;9.55;;;4.07;;
68803;SDS011;55787;52.678;13.314;2023-06-14T06:26:53;9.05;;;3.58;;
68803;SDS011;55787;52.678;13.314;2023-06-14T06:29:19;11.18;;;3.95;;
68803;SDS011;55787;52.678;13.314;2023-06-14T06:31:46;9.23;;;4.10;;
68803;SDS011;55787;52.678;13.314;2023-06-14T06:34:13;10.07;;;3.88;;
68803;SDS011;55787;52.678;13.314;2023-06-14T06:36:40;11.32;;;4.07;;
68803;SDS011;55787;52.678;13.314;2023-06-14T06:39:07;10.55;;;4.50;;
68803;SDS011;55787;52.678;13.314;2023-06-14T06:41:37;12.77;;;4.13;;
68803;SDS011;55787;52.678;13.314;2023-06-14T06:44:06;9.40;;;4.10;;
68803;SDS011;55787;52.678;13.314;2023-06-14T06:46:33;14.25;;;4.25;;
68803;SDS011;55787;52.678;13.314;2023-06-14T06:49:01;9.40;;;4.00;;
68803;SDS011;55787;52.678;13.314;2023-06-14T06:51:28;9.40;;;4.00;;
68803;SDS011;55787;52.678;13.314;2023-06-14T06:53:54;9.52;;;4.13;;
68803;SDS011;55787;52.678;13.314;2023-06-14T06:56:21;9.03;;;3.93;;
68803;SDS011;55787;52.678;13.314;2023-06-14T06:58:52;10.35;;;3.92;;
68803;SDS011;55787;52.678;13.314;2023-06-14T07:01:18;8.65;;;4.20;;
68803;SDS011;55787;52.678;13.314;2023-06-14T07:03:46;10.63;;;4.25;;
68803;SDS011;55787;52.678;13.314;2023-06-14T07:06:13;9.52;;;3.85;;
68803;SDS011;55787;52.678;13.314;2023-06-14T07:08:40;9.50;;;3.63;;
68803;SDS011;55787;52.678;13.314;2023-06-14T07:11:07;10.15;;;3.90;;
68803;SDS011;55787;52.678;13.314;2023-06-14T07:13:33;9.20;;;4.00;;
68803;SDS011;55787;52.678;13.314;2023-06-14T07:16:00;10.77;;;4.18;;
68803;SDS011;55787;52.678;13.314;2023-06-14T07:18:28;8.48;;;3.80;;
68803;SDS011;55787;52.678;13.314;2023-06-14T07:20:54;9.63;;;4.00;;
68803;SDS011;55787;52.678;13.314;2023-06-14T07:23:22;11.52;;;4.00;;
68803;SDS011;55787;52.678;13.314;2023-06-14T07:25:49;10.40;;;3.97;;
68803;SDS011;55787;52.678;13.314;2023-06-14T07:28:16;10.50;;;3.90;;
68803;SDS011;55787;52.678;13.314;2023-06-14T07:30:44;11.45;;;4.13;;
68803;SDS011;55787;52.678;13.314;2023-06-14T07:33:11;9.70;;;4.30;;
68803;SDS011;55787;52.678;13.314;2023-06-14T07:35:39;12.35;;;4.00;;
68803;SDS011;55787;52.678;13.314;2023-06-14T07:38:08;9.10;;;4.15;;
68803;SDS011;55787;52.678;13.314;2023-06-14T07:40:35;10.43;;;4.18;;
68803;SDS011;55787;52.678;13.314;2023-06-14T07:43:01;8.95;;;4.20;;
68803;SDS011;55787;52.678;13.314;2023-06-14T07:45:28;10.13;;;4.00;;
68803;SDS011;55787;52.678;13.314;2023-06-14T07:47:55;9.23;;;3.88;;
68803;SDS011;55787;52.678;13.314;2023-06-14T07:50:23;9.77;;;4.78;;
68803;SDS011;55787;52.678;13.314;2023-06-14T07:52:49;7.65;;;3.80;;
68803;SDS011;55787;52.678;13.314;2023-06-14T07:55:16;8.95;;;3.85;;
68803;SDS011;55787;52.678;13.314;2023-06-14T07:57:44;11.10;;;4.00;;
68803;SDS011;55787;52.678;13.314;2023-06-14T08:00:11;8.10;;;4.18;;
68803;SDS011;55787;52.678;13.314;2023-06-14T08:02:43;10.15;;;4.10;;
68803;SDS011;55787;52.678;13.314;2023-06-14T08:05:11;8.88;;;4.60;;
68803;SDS011;55787;52.678;13.314;2023-06-14T08:07:41;8.55;;;3.83;;
68803;SDS011;55787;52.678;13.314;2023-06-14T08:10:09;8.87;;;3.93;;
68803;SDS011;55787;52.678;13.314;2023-06-14T08:12:36;8.30;;;4.22;;
68803;SDS011;55787;52.678;13.314;2023-06-14T08:15:03;8.95;;;4.50;;
68803;SDS011;55787;52.678;13.314;2023-06-14T08:17:39;8.10;;;4.07;;
68803;SDS011;55787;52.678;13.314;2023-06-14T08:20:06;8.18;;;3.92;;
68803;SDS011;55787;52.678;13.314;2023-06-14T08:22:34;8.03;;;3.70;;
68803;SDS011;55787;52.678;13.314;2023-06-14T08:25:01;9.85;;;3.85;;
68803;SDS011;55787;52.678;13.314;2023-06-14T08:27:28;10.43;;;4.22;;
68803;SDS011;55787;52.678;13.314;2023-06-14T08:29:56;8.55;;;3.63;;
68803;SDS011;55787;52.678;13.314;2023-06-14T08:32:23;8.38;;;3.90;;
68803;SDS011;55787;52.678;13.314;2023-06-14T08:34:50;8.70;;;3.60;;
68803;SDS011;55787;52.678;13.314;2023-06-14T08:37:30;9.13;;;3.90;;
68803;SDS011;55787;52.678;13.314;2023-06-14T08:39:57;7.88;;;3.83;;
68803;SDS011;55787;52.678;13.314;2023-06-14T08:42:24;7.88;;;3.70;;
68803;SDS011;55787;52.678;13.314;2023-06-14T08:44:57;6.93;;;3.40;;
68803;SDS011;55787;52.678;13.314;2023-06-14T08:47:25;9.37;;;3.43;;
68803;SDS011;55787;52.678;13.314;2023-06-14T08:49:55;10.30;;;3.75;;
68803;SDS011;55787;52.678;13.314;2023-06-14T08:52:24;13.32;;;4.13;;
68803;SDS011;55787;52.678;13.314;2023-06-14T08:54:56;10.45;;;4.00;;
68803;SDS011;55787;52.678;13.314;2023-06-14T08:57:24;9.15;;;4.10;;
68803;SDS011;55787;52.678;13.314;2023-06-14T08:59:51;9.13;;;3.90;;
68803;SDS011;55787;52.678;13.314;2023-06-14T09:02:20;10.52;;;4.15;;
68803;SDS011;55787;52.678;13.314;2023-06-14T09:04:48;10.38;;;4.07;;
68803;SDS011;55787;52.678;13.314;2023-06-14T09:07:18;9.80;;;4.20;;
68803;SDS011;55787;52.678;13.314;2023-06-14T09:09:44;10.10;;;3.80;;
68803;SDS011;55787;52.678;13.314;2023-06-14T09:12:31;9.03;;;4.00;;
68803;SDS011;55787;52.678;13.314;2023-06-14T09:14:58;11.05;;;4.00;;
68803;SDS011;55787;52.678;13.314;2023-06-14T09:17:26;10.15;;;3.80;;
68803;SDS011;55787;52.678;13.314;2023-06-14T09:19:54;10.05;;;3.80;;
68803;SDS011;55787;52.678;13.314;2023-06-14T09:22:21;9.88;;;4.05;;
68803;SDS011;55787;52.678;13.314;2023-06-14T09:24:48;9.40;;;4.00;;
68803;SDS011;55787;52.678;13.314;2023-06-14T09:27:15;9.50;;;3.85;;
68803;SDS011;55787;52.678;13.314;2023-06-14T09:29:42;8.68;;;3.92;;
68803;SDS011;55787;52.678;13.314;2023-06-14T09:32:09;11.80;;;3.90;;
68803;SDS011;55787;52.678;13.314;2023-06-14T09:34:36;12.50;;;4.30;;
68803;SDS011;55787;52.678;13.314;2023-06-14T09:37:04;9.20;;;3.87;;
68803;SDS011;55787;52.678;13.314;2023-06-14T09:39:31;9.50;;;3.97;;
68803;SDS011;55787;52.678;13.314;2023-06-14T09:41:57;12.50;;;4.15;;
68803;SDS011;55787;52.678;13.314;2023-06-14T09:44:25;9.45;;;3.92;;
68803;SDS011;55787;52.678;13.314;2023-06-14T09:46:55;10.63;;;3.85;;
68803;SDS011;55787;52.678;13.314;2023-06-14T09:49:22;10.77;;;3.83;;
68803;SDS011;55787;52.678;13.314;2023-06-14T09:51:50;11.55;;;3.95;;
68803;SDS011;55787;52.678;13.314;2023-06-14T09:54:20;10.73;;;3.95;;
68803;SDS011;55787;52.678;13.314;2023-06-14T09:56:49;10.27;;;4.07;;
68803;SDS011;55787;52.678;13.314;2023-06-14T09:59:21;11.13;;;3.53;;
68803;SDS011;55787;52.678;13.314;2023-06-14T10:01:56;9.40;;;3.70;;
68803;SDS011;55787;52.678;13.314;2023-06-14T10:04:26;10.05;;;3.90;;
68803;SDS011;55787;52.678;13.314;2023-06-14T10:06:55;8.85;;;3.92;;
68803;SDS011;55787;52.678;13.314;2023-06-14T10:09:22;9.80;;;3.90;;
68803;SDS011;55787;52.678;13.314;2023-06-14T10:11:48;9.10;;;3.85;;
68803;SDS011;55787;52.678;13.314;2023-06-14T10:14:16;10.83;;;3.80;;
68803;SDS011;55787;52.678;13.314;2023-06-14T10:17:00;8.43;;;3.65;;
68803;SDS011;55787;52.678;13.314;2023-06-14T10:22:49;10.15;;;3.80;;
68803;SDS011;55787;52.678;13.314;2023-06-14T10:25:27;10.43;;;3.90;;
68803;SDS011;55787;52.678;13.314;2023-06-14T10:28:02;10.87;;;3.80;;
68803;SDS011;55787;52.678;13.314;2023-06-14T10:33:34;10.45;;;3.80;;
68803;SDS011;55787;52.678;13.314;2023-06-14T10:36:09;9.48;;;3.70;;
68803;SDS011;55787;52.678;13.314;2023-06-14T10:38:37;9.70;;;3.92;;
68803;SDS011;55787;52.678;13.314;2023-06-14T10:41:05;11.57;;;3.90;;
68803;SDS011;55787;52.678;13.314;2023-06-14T10:43:32;8.88;;;3.80;;
68803;SDS011;55787;52.678;13.314;2023-06-14T10:48:58;9.38;;;3.90;;
68803;SDS011;55787;52.678;13.314;2023-06-14T10:51:29;8.23;;;3.55;;
68803;SDS011;55787;52.678;13.314;2023-06-14T10:53:58;10.17;;;3.80;;
68803;SDS011;55787;52.678;13.314;2023-06-14T10:58:59;10.05;;;3.55;;
68803;SDS011;55787;52.678;13.314;2023-06-14T11:01:36;8.98;;;3.70;;
68803;SDS011;55787;52.678;13.314;2023-06-14T11:04:07;10.00;;;3.55;;
68803;SDS011;55787;52.678;13.314;2023-06-14T11:06:46;7.67;;;3.50;;
68803;SDS011;55787;52.678;13.314;2023-06-14T11:12:26;8.05;;;3.30;;
68803;SDS011;55787;52.678;13.314;2023-06-14T11:14:54;9.38;;;3.60;;
68803;SDS011;55787;52.678;13.314;2023-06-14T11:17:21;9.85;;;3.70;;
68803;SDS011;55787;52.678;13.314;2023-06-14T11:19:48;8.87;;;3.30;;
68803;SDS011;55787;52.678;13.314;2023-06-14T11:22:14;8.32;;;3.90;;
68803;SDS011;55787;52.678;13.314;2023-06-14T11:24:42;8.68;;;3.58;;
68803;SDS011;55787;52.678;13.314;2023-06-14T11:27:09;8.85;;;3.67;;
68803;SDS011;55787;52.678;13.314;2023-06-14T11:29:35;10.60;;;3.47;;
68803;SDS011;55787;52.678;13.314;2023-06-14T11:32:02;7.47;;;3.20;;
68803;SDS011;55787;52.678;13.314;2023-06-14T11:34:33;7.95;;;3.50;;
68803;SDS011;55787;52.678;13.314;2023-06-14T11:37:00;9.82;;;3.55;;
68803;SDS011;55787;52.678;13.314;2023-06-14T11:39:27;7.65;;;3.20;;
68803;SDS011;55787;52.678;13.314;2023-06-14T11:41:53;9.95;;;3.88;;
68803;SDS011;55787;52.678;13.314;2023-06-14T11:44:21;10.73;;;3.80;;
68803;SDS011;55787;52.678;13.314;2023-06-14T11:46:48;8.77;;;3.72;;
68803;SDS011;55787;52.678;13.314;2023-06-14T11:49:16;9.60;;;3.90;;
68803;SDS011;55787;52.678;13.314;2023-06-14T11:51:43;8.70;;;3.88;;
68803;SDS011;55787;52.678;13.314;2023-06-14T11:54:11;9.27;;;3.70;;
68803;SDS011;55787;52.678;13.314;2023-06-14T11:56:38;9.80;;;3.30;;
68803;SDS011;55787;52.678;13.314;2023-06-14T11:59:05;9.73;;;3.70;;
68803;SDS011;55787;52.678;13.314;2023-06-14T12:01:35;7.75;;;3.97;;
68803;SDS011;55787;52.678;13.314;2023-06-14T12:04:03;8.75;;;3.53;;
68803;SDS011;55787;52.678;13.314;2023-06-14T12:06:30;8.75;;;3.67;;
68803;SDS011;55787;52.678;13.314;2023-06-14T12:09:05;8.30;;;3.37;;
68803;SDS011;55787;52.678;13.314;2023-06-14T12:11:37;7.95;;;3.58;;
68803;SDS011;55787;52.678;13.314;2023-06-14T12:14:04;7.78;;;3.58;;
68803;SDS011;55787;52.678;13.314;2023-06-14T12:16:33;11.23;;;3.95;;
68803;SDS011;55787;52.678;13.314;2023-06-14T12:19:01;10.63;;;3.50;;
68803;SDS011;55787;52.678;13.314;2023-06-14T12:21:36;10.27;;;3.27;;
68803;SDS011;55787;52.678;13.314;2023-06-14T12:24:05;12.10;;;3.55;;
68803;SDS011;55787;52.678;13.314;2023-06-14T12:26:33;12.05;;;3.70;;
68803;SDS011;55787;52.678;13.314;2023-06-14T12:29:00;8.35;;;3.72;;
68803;SDS011;55787;52.678;13.314;2023-06-14T12:31:26;10.52;;;3.85;;
68803;SDS011;55787;52.678;13.314;2023-06-14T12:33:53;10.27;;;4.07;;
68803;SDS011;55787;52.678;13.314;2023-06-14T12:36:19;9.30;;;3.20;;
68803;SDS011;55787;52.678;13.314;2023-06-14T12:38:46;8.18;;;3.50;;
68803;SDS011;55787;52.678;13.314;2023-06-14T12:41:13;7.47;;;3.03;;
68803;SDS011;55787;52.678;13.314;2023-06-14T12:43:42;10.60;;;3.40;;
68803;SDS011;55787;52.678;13.314;2023-06-14T12:46:09;9.87;;;3.43;;
68803;SDS011;55787;52.678;13.314;2023-06-14T12:48:36;8.23;;;3.25;;
68803;SDS011;55787;52.678;13.314;2023-06-14T12:51:03;8.57;;;3.20;;
68803;SDS011;55787;52.678;13.314;2023-06-14T12:53:29;8.85;;;3.47;;
68803;SDS011;55787;52.678;13.314;2023-06-14T12:55:56;9.57;;;3.20;;
68803;SDS011;55787;52.678;13.314;2023-06-14T12:58:23;9.83;;;3.00;;
68803;SDS011;55787;52.678;13.314;2023-06-14T13:00:51;8.10;;;3.20;;
68803;SDS011;55787;52.678;13.314;2023-06-14T13:03:17;8.32;;;3.22;;
68803;SDS011;55787;52.678;13.314;2023-06-14T13:05:45;8.48;;;3.85;;
68803;SDS011;55787;52.678;13.314;2023-06-14T13:08:12;8.52;;;3.28;;
68803;SDS011;55787;52.678;13.314;2023-06-14T13:10:39;8.23;;;3.20;;
68803;SDS011;55787;52.678;13.314;2023-06-14T13:13:06;7.38;;;2.92;;
68803;SDS011;55787;52.678;13.314;2023-06-14T13:15:34;9.07;;;3.17;;
68803;SDS011;55787;52.678;13.314;2023-06-14T13:18:01;7.63;;;3.05;;
68803;SDS011;55787;52.678;13.314;2023-06-14T13:20:29;7.30;;;2.88;;
68803;SDS011;55787;52.678;13.314;2023-06-14T13:22:56;8.17;;;3.23;;
68803;SDS011;55787;52.678;13.314;2023-06-14T13:25:23;7.43;;;2.90;;
68803;SDS011;55787;52.678;13.314;2023-06-14T13:27:50;7.13;;;2.70;;
68803;SDS011;55787;52.678;13.314;2023-06-14T13:30:16;8.88;;;3.00;;
68803;SDS011;55787;52.678;13.314;2023-06-14T13:32:44;7.85;;;2.70;;
68803;SDS011;55787;52.678;13.314;2023-06-14T13:35:15;8.03;;;2.90;;
68803;SDS011;55787;52.678;13.314;2023-06-14T13:37:42;9.82;;;3.08;;
68803;SDS011;55787;52.678;13.314;2023-06-14T13:40:08;7.68;;;2.67;;
68803;SDS011;55787;52.678;13.314;2023-06-14T13:42:36;7.18;;;2.67;;
68803;SDS011;55787;52.678;13.314;2023-06-14T13:45:03;9.30;;;2.80;;
68803;SDS011;55787;52.678;13.314;2023-06-14T13:47:48;9.67;;;3.00;;
68803;SDS011;55787;52.678;13.314;2023-06-14T13:50:32;9.25;;;3.10;;
68803;SDS011;55787;52.678;13.314;2023-06-14T13:53:17;7.97;;;2.80;;
68803;SDS011;55787;52.678;13.314;2023-06-14T13:56:01;8.88;;;3.17;;
68803;SDS011;55787;52.678;13.314;2023-06-14T13:58:45;8.80;;;2.88;;
68803;SDS011;55787;52.678;13.314;2023-06-14T14:01:29;7.30;;;2.50;;
68803;SDS011;55787;52.678;13.314;2023-06-14T14:04:14;9.15;;;2.85;;
68803;SDS011;55787;52.678;13.314;2023-06-14T14:06:58;11.32;;;2.90;;
68803;SDS011;55787;52.678;13.314;2023-06-14T14:09:42;7.55;;;2.65;;
68803;SDS011;55787;52.678;13.314;2023-06-14T14:12:27;10.77;;;2.90;;
68803;SDS011;55787;52.678;13.314;2023-06-14T14:15:12;8.33;;;2.63;;
68803;SDS011;55787;52.678;13.314;2023-06-14T14:17:58;8.18;;;2.97;;
68803;SDS011;55787;52.678;13.314;2023-06-14T14:20:43;7.10;;;2.65;;
68803;SDS011;55787;52.678;13.314;2023-06-14T14:23:27;7.80;;;2.60;;
68803;SDS011;55787;52.678;13.314;2023-06-14T14:26:11;10.52;;;2.53;;
68803;SDS011;55787;52.678;13.314;2023-06-14T14:28:55;8.90;;;2.60;;
68803;SDS011;55787;52.678;13.314;2023-06-14T14:31:22;12.52;;;2.55;;
68803;SDS011;55787;52.678;13.314;2023-06-14T14:33:49;10.25;;;2.72;;
68803;SDS011;55787;52.678;13.314;2023-06-14T14:36:15;7.60;;;2.60;;
68803;SDS011;55787;52.678;13.314;2023-06-14T14:38:42;8.00;;;2.60;;
68803;SDS011;55787;52.678;13.314;2023-06-14T14:41:09;8.17;;;3.40;;
68803;SDS011;55787;52.678;13.314;2023-06-14T14:43:36;7.32;;;2.85;;
68803;SDS011;55787;52.678;13.314;2023-06-14T14:46:02;7.50;;;2.83;;
68803;SDS011;55787;52.678;13.314;2023-06-14T14:48:29;8.25;;;2.75;;
68803;SDS011;55787;52.678;13.314;2023-06-14T14:50:56;12.98;;;3.08;;
68803;SDS011;55787;52.678;13.314;2023-06-14T14:53:23;10.03;;;2.70;;
68803;SDS011;55787;52.678;13.314;2023-06-14T14:55:49;9.07;;;2.88;;
68803;SDS011;55787;52.678;13.314;2023-06-14T14:58:16;11.18;;;2.90;;
68803;SDS011;55787;52.678;13.314;2023-06-14T15:00:44;11.43;;;2.50;;
68803;SDS011;55787;52.678;13.314;2023-06-14T15:03:12;7.65;;;2.88;;